Terminal Aerodrome Forecast
Issued by NWS Cleveland, OH

Home | Current Version | Previous Version | Text Only | Print | Product List | Glossary On
Versions: 1 2 3 4 5 6 7 8 9 10 11 12 13 14 15 16 17 18 19 20 21 22 23 24 25 26 27 28 29 30 31
000
FTUS41 KCLE 261700
TAFCLE
TAF
KCLE 261736Z 2618/2724 07006KT P6SM BKN030 OVC035
     FM262000 04006KT P6SM OVC030
     FM270000 01006KT P6SM VCSH OVC025
     FM270800 35006KT 3SM -SHSN OVC025
     FM271400 30010KT P6SM VCSH OVC025=

USA.gov is the U.S. government's official web portal to all federal, state and local government web resources and services.